Time;durP1;ratioP1;P1;durP2;ratioP2;P2;SDS_P1;SDS_P2;PMS_P1;PMS_P2;Temp;Humidity;BMP_temperature;BMP_pressure;BME280_temperature;BME280_humidity;BME280_pressure;Samples;Min_cycle;Max_cycle;Signal;HPM_P1;HPM_P2
2023/01/15 00:00:13;;;;;;;0.90;0.47;;;;;;;10.03;100.00;98689.75;5028270;28;20068;-68
2023/01/15 00:02:38;;;;;;;0.85;0.45;;;;;;;9.95;99.95;98695.59;5028012;28;20053;-68
2023/01/15 00:05:04;;;;;;;0.28;0.20;;;;;;;9.92;98.79;98712.53;5029346;28;20084;-68
2023/01/15 00:07:30;;;;;;;1.15;0.50;;;;;;;10.02;99.34;98708.97;5035946;28;20053;-68
2023/01/15 00:09:55;;;;;;;0.75;0.40;;;;;;;9.72;97.91;98698.88;5025684;28;20034;-68
2023/01/15 00:12:20;;;;;;;0.90;0.50;;;;;;;9.63;98.03;98700.47;5026276;28;20025;-68
2023/01/15 00:14:46;;;;;;;1.83;0.47;;;;;;;9.73;99.21;98691.56;5025180;28;20449;-68
2023/01/15 00:17:11;;;;;;;0.20;0.20;;;;;;;9.72;98.39;98698.09;5029535;28;20034;-68
2023/01/15 00:19:37;;;;;;;1.92;0.60;;;;;;;9.76;98.41;98699.59;5024798;28;20021;-68
2023/01/15 00:22:02;;;;;;;0.55;0.55;;;;;;;9.79;97.77;98695.38;5028793;28;20552;-69
2023/01/15 00:29:56;;;;;;;0.20;0.20;;;;;;;9.70;97.16;98698.50;5027473;28;20033;-68
2023/01/15 00:32:21;;;;;;;0.30;0.30;;;;;;;9.48;96.88;98696.38;5012737;28;20026;-68
2023/01/15 00:34:47;;;;;;;0.30;0.30;;;;;;;9.38;96.62;98702.59;5026416;28;20044;-68
2023/01/15 00:37:13;;;;;;;0.32;0.32;;;;;;;9.21;97.84;98695.41;5027767;28;20075;-68
2023/01/15 00:39:39;;;;;;;0.40;0.40;;;;;;;9.29;97.43;98710.34;5026986;28;20119;-68
2023/01/15 00:42:04;;;;;;;0.20;0.20;;;;;;;9.43;97.12;98707.53;5028655;28;20508;-68
2023/01/15 00:44:32;;;;;;;0.30;0.20;;;;;;;9.61;96.50;98718.91;5023499;28;20033;-68
2023/01/15 00:46:58;;;;;;;2.97;0.50;;;;;;;9.74;96.12;98720.75;5026585;28;20378;-68
2023/01/15 00:49:23;;;;;;;2.60;0.63;;;;;;;9.62;95.83;98731.97;5027830;28;20036;-68
2023/01/15 00:51:49;;;;;;;0.90;0.40;;;;;;;9.63;95.70;98732.72;5015158;28;20072;-69
2023/01/15 00:54:15;;;;;;;1.45;0.50;;;;;;;9.66;95.02;98745.38;5028727;28;20025;-68
2023/01/15 00:56:41;;;;;;;0.77;0.65;;;;;;;9.65;95.43;98735.78;5020614;28;20398;-68
2023/01/15 00:59:06;;;;;;;0.63;0.47;;;;;;;9.63;95.21;98741.56;5030793;28;20029;-68
2023/01/15 01:01:32;;;;;;;2.45;0.63;;;;;;;9.70;94.77;98735.34;5030821;28;20032;-68
2023/01/15 01:03:57;;;;;;;0.30;0.30;;;;;;;9.63;95.10;98736.19;5032541;28;20470;-68
2023/01/15 01:06:23;;;;;;;0.65;0.57;;;;;;;9.45;94.96;98742.81;5044481;28;20040;-68
2023/01/15 01:08:49;;;;;;;0.65;0.40;;;;;;;9.37;95.42;98747.47;5031054;28;20108;-68
2023/01/15 01:11:17;;;;;;;0.80;0.40;;;;;;;9.50;94.47;98751.25;5031026;28;20036;-68
2023/01/15 01:13:45;;;;;;;0.45;0.45;;;;;;;9.52;94.61;98750.84;5031158;28;20405;-68
2023/01/15 01:16:36;;;;;;;1.92;0.50;;;;;;;9.43;95.39;98758.56;5032456;28;20500;-68
2023/01/15 01:19:22;;;;;;;0.30;0.30;;;;;;;9.38;94.99;98748.25;5030309;28;20547;-68
2023/01/15 01:21:48;;;;;;;1.23;0.47;;;;;;;9.35;94.29;98757.84;5029777;28;20124;-68
2023/01/15 01:24:17;;;;;;;0.65;0.55;;;;;;;9.30;94.86;98760.19;5030521;28;20029;-68
2023/01/15 01:26:44;;;;;;;6.82;0.68;;;;;;;9.34;94.69;98759.03;5028332;28;20037;-68
2023/01/15 01:29:23;;;;;;;0.40;0.40;;;;;;;9.52;94.77;98764.28;5029493;28;20555;-68
2023/01/15 01:31:50;;;;;;;3.45;0.45;;;;;;;9.38;94.34;98764.38;5022220;28;20037;-68
2023/01/15 01:34:17;;;;;;;0.40;0.32;;;;;;;9.40;95.07;98757.47;5030490;28;20021;-68
2023/01/15 01:36:43;;;;;;;1.10;0.60;;;;;;;9.17;95.71;98761.81;5029526;28;20071;-68
2023/01/15 01:39:16;;;;;;;0.40;0.40;;;;;;;9.13;95.69;98753.00;5016736;28;20025;-68
2023/01/15 01:41:43;;;;;;;0.63;0.30;;;;;;;9.29;96.06;98750.63;5027725;28;20082;-68
2023/01/15 01:44:33;;;;;;;0.80;0.40;;;;;;;9.29;95.71;98758.69;5025086;28;20066;-68
2023/01/15 01:47:04;;;;;;;2.08;0.93;;;;;;;9.18;96.00;98753.34;5021527;28;20033;-68
2023/01/15 01:49:29;;;;;;;0.60;0.60;;;;;;;9.37;95.13;98749.44;5024054;28;20087;-68
2023/01/15 01:52:00;;;;;;;0.38;0.38;;;;;;;9.21;95.72;98751.81;5026503;28;20030;-67
2023/01/15 01:54:30;;;;;;;1.10;0.40;;;;;;;9.08;95.86;98759.53;5030682;28;20108;-68
2023/01/15 01:56:56;;;;;;;3.83;0.80;;;;;;;8.99;96.31;98749.22;5016466;28;20053;-68
2023/01/15 01:59:24;;;;;;;1.00;0.80;;;;;;;9.19;96.32;98748.75;5028214;28;20460;-68
2023/01/15 02:01:50;;;;;;;0.35;0.35;;;;;;;9.23;95.90;98750.28;5027271;28;20079;-68
2023/01/15 02:04:20;;;;;;;1.00;0.60;;;;;;;9.30;95.97;98749.44;5026755;28;20088;-68
2023/01/15 02:06:46;;;;;;;1.25;0.60;;;;;;;9.38;95.17;98745.56;5021966;28;20033;-68
2023/01/15 02:09:12;;;;;;;0.63;0.60;;;;;;;9.30;95.63;98742.16;5028091;28;20040;-68
2023/01/15 02:11:37;;;;;;;1.50;0.90;;;;;;;9.33;95.35;98735.25;5030582;28;20033;-68
2023/01/15 02:14:47;;;;;;;2.42;0.88;;;;;;;9.39;95.18;98736.38;5030405;28;20055;-68
2023/01/15 02:17:24;;;;;;;0.98;0.70;;;;;;;9.30;94.87;98728.72;5028184;28;20121;-68
2023/01/15 02:20:00;;;;;;;0.55;0.47;;;;;;;9.31;95.22;98716.81;5029108;28;20414;-68
2023/01/15 02:22:58;;;;;;;1.35;0.70;;;;;;;9.37;94.52;98725.25;5040062;28;20497;-68
2023/01/15 02:25:53;;;;;;;0.70;0.70;;;;;;;9.32;94.04;98731.03;5025704;28;20033;-68
2023/01/15 02:28:25;;;;;;;3.22;1.00;;;;;;;9.36;94.47;98735.22;5018670;28;20048;-68
2023/01/15 02:31:26;;;;;;;0.93;0.60;;;;;;;9.15;94.71;98721.16;5011693;28;20533;-68
2023/01/15 02:34:02;;;;;;;1.73;0.90;;;;;;;9.24;94.16;98729.53;5019735;28;20072;-68
2023/01/15 02:36:33;;;;;;;3.03;0.55;;;;;;;9.35;93.30;98732.94;5026702;28;20084;-68
2023/01/15 02:39:04;;;;;;;2.97;0.88;;;;;;;9.31;93.23;98737.56;5028589;28;20037;-68
2023/01/15 02:41:40;;;;;;;0.55;0.50;;;;;;;9.34;93.26;98740.22;5035227;28;20033;-68
2023/01/15 02:44:10;;;;;;;0.30;0.30;;;;;;;9.31;92.63;98734.88;5006025;28;20096;-68
2023/01/15 02:46:37;;;;;;;1.35;0.40;;;;;;;9.33;92.48;98730.63;5031120;28;20049;-68
2023/01/15 02:49:09;;;;;;;1.23;0.65;;;;;;;9.42;92.51;98732.88;5013418;28;20041;-68
2023/01/15 02:51:43;;;;;;;0.63;0.60;;;;;;;9.36;91.42;98734.44;5025930;28;20063;-68
2023/01/15 02:54:13;;;;;;;0.63;0.50;;;;;;;9.31;91.00;98732.94;5027431;28;20021;-68
2023/01/15 02:56:41;;;;;;;3.80;0.70;;;;;;;9.19;91.46;98733.41;5029980;28;20025;-68
2023/01/15 02:59:14;;;;;;;3.42;0.75;;;;;;;9.21;91.76;98736.47;5024542;28;20070;-68
2023/01/15 03:01:50;;;;;;;0.70;0.55;;;;;;;9.37;91.30;98731.38;5011668;28;20025;-68
2023/01/15 03:04:39;;;;;;;2.25;0.65;;;;;;;9.30;90.56;98741.38;5029154;28;20048;-68
2023/01/15 03:07:17;;;;;;;0.60;0.43;;;;;;;9.33;90.38;98748.69;5028767;28;20041;-68
2023/01/15 03:09:44;;;;;;;3.15;0.80;;;;;;;9.33;90.57;98736.00;5025668;28;20147;-69
2023/01/15 03:12:14;;;;;;;0.43;0.30;;;;;;;9.45;90.04;98735.53;5028712;28;20469;-68
2023/01/15 03:14:58;;;;;;;0.30;0.30;;;;;;;9.41;89.97;98734.03;5041709;28;20034;-68
2023/01/15 03:17:48;;;;;;;4.20;0.65;;;;;;;9.39;89.95;98739.06;5032587;28;20033;-68
2023/01/15 03:20:19;;;;;;;3.75;0.70;;;;;;;9.32;89.68;98734.47;5027879;28;20120;-68
2023/01/15 03:22:50;;;;;;;1.85;1.75;;;;;;;9.39;90.20;98739.78;5021148;28;20029;-68
2023/01/15 03:25:22;;;;;;;2.47;0.93;;;;;;;9.22;89.86;98737.22;5029957;28;20114;-68
2023/01/15 03:27:54;;;;;;;1.45;0.47;;;;;;;9.35;90.76;98736.38;5022243;28;20114;-68
2023/01/15 03:30:21;;;;;;;0.57;0.57;;;;;;;9.42;90.11;98738.25;5026763;28;20110;-68
2023/01/15 03:32:48;;;;;;;5.18;0.93;;;;;;;9.17;90.07;98738.41;5032103;28;20037;-67
2023/01/15 03:35:48;;;;;;;2.80;0.90;;;;;;;9.16;90.14;98733.41;5024376;28;20021;-68
2023/01/15 03:38:29;;;;;;;0.45;0.40;;;;;;;9.28;90.26;98722.22;5045373;28;20052;-68
2023/01/15 03:41:04;;;;;;;2.58;0.50;;;;;;;9.27;90.76;98721.44;5006876;28;20036;-68
2023/01/15 03:43:41;;;;;;;0.75;0.43;;;;;;;9.20;90.88;98726.88;5011117;28;20036;-68
2023/01/15 03:46:32;;;;;;;1.17;0.40;;;;;;;9.38;89.71;98737.50;5028692;28;20200;-68
2023/01/15 03:49:12;;;;;;;2.65;0.60;;;;;;;9.40;89.89;98735.97;5022637;28;20112;-68
2023/01/15 03:51:55;;;;;;;7.57;0.90;;;;;;;9.27;89.76;98732.19;5028024;28;20060;-68
2023/01/15 03:54:49;;;;;;;2.00;0.50;;;;;;;9.27;89.79;98728.75;5022637;28;20044;-67
2023/01/15 03:57:47;;;;;;;0.52;0.52;;;;;;;9.26;89.67;98721.84;5024869;28;20072;-68
2023/01/15 04:00:17;;;;;;;0.30;0.30;;;;;;;9.32;89.43;98713.00;5020413;28;20136;-68
2023/01/15 04:02:48;;;;;;;1.52;0.68;;;;;;;9.30;90.14;98720.69;5011894;28;20029;-67
2023/01/15 04:05:17;;;;;;;2.97;0.70;;;;;;;9.07;90.58;98707.00;5023081;28;20036;-67
2023/01/15 04:07:47;;;;;;;1.50;0.50;;;;;;;9.20;89.98;98713.44;5025594;28;20401;-67
2023/01/15 04:10:14;;;;;;;1.05;0.60;;;;;;;9.03;90.40;98709.72;5028658;28;20128;-67
2023/01/15 04:12:40;;;;;;;3.13;0.40;;;;;;;9.13;91.33;98712.72;5027736;28;20478;-66
2023/01/15 04:15:10;;;;;;;1.35;0.70;;;;;;;9.07;90.69;98693.59;5021246;28;20040;-68
2023/01/15 04:17:37;;;;;;;4.95;0.60;;;;;;;9.13;90.16;98697.38;5028972;28;20033;-67
2023/01/15 04:20:04;;;;;;;1.05;0.95;;;;;;;9.18;90.44;98702.34;5040321;28;20577;-67
2023/01/15 04:22:30;;;;;;;0.50;0.50;;;;;;;9.10;90.97;98700.84;5031704;28;20120;-68
2023/01/15 04:24:55;;;;;;;5.45;0.90;;;;;;;9.18;91.04;98709.63;5026580;28;20108;-68
2023/01/15 04:27:21;;;;;;;5.25;0.70;;;;;;;9.20;90.37;98704.63;5010727;28;20751;-68
2023/01/15 04:29:47;;;;;;;0.30;0.30;;;;;;;9.28;90.01;98698.03;5023154;28;20033;-67
2023/01/15 04:32:12;;;;;;;5.43;0.98;;;;;;;9.19;89.96;98689.69;5027372;28;20053;-68
2023/01/15 04:34:38;;;;;;;1.00;0.90;;;;;;;9.28;90.25;98690.75;5026957;28;20100;-68
2023/01/15 04:37:03;;;;;;;3.58;0.82;;;;;;;9.24;90.43;98689.25;5022488;28;20055;-67
2023/01/15 04:39:29;;;;;;;2.53;0.40;;;;;;;9.18;89.79;98683.53;5031200;28;20083;-67
2023/01/15 04:44:38;;;;;;;5.05;0.93;;;;;;;9.07;91.05;98702.41;5028705;28;20518;-67
2023/01/15 04:47:04;;;;;;;3.83;0.85;;;;;;;9.11;90.67;98699.69;5025170;28;20033;-67
2023/01/15 04:49:30;;;;;;;2.83;0.75;;;;;;;9.08;90.63;98693.19;5021807;28;20029;-67
2023/01/15 04:51:55;;;;;;;3.90;0.52;;;;;;;9.01;91.22;98701.28;5025375;28;20424;-68
2023/01/15 04:54:21;;;;;;;1.17;0.60;;;;;;;9.12;90.65;98695.84;5021530;28;20022;-68
2023/01/15 04:56:49;;;;;;;1.33;0.73;;;;;;;9.09;90.54;98689.34;5026869;28;20124;-68
2023/01/15 04:59:17;;;;;;;1.85;0.90;;;;;;;9.06;90.97;98695.50;5038588;23;20038;-70
2023/01/15 05:01:42;;;;;;;0.68;0.45;;;;;;;9.10;90.73;98708.91;5007988;28;20496;-70
2023/01/15 05:04:08;;;;;;;6.93;0.75;;;;;;;9.12;90.44;98701.22;5027525;28;20038;-70
2023/01/15 05:06:33;;;;;;;0.20;0.20;;;;;;;9.07;90.92;98678.25;5026011;28;20030;-71
2023/01/15 05:09:00;;;;;;;1.85;0.75;;;;;;;8.89;91.49;98682.16;5011729;28;20462;-70
2023/01/15 05:11:26;;;;;;;0.70;0.50;;;;;;;8.80;91.54;98685.31;5012000;28;20052;-70
2023/01/15 05:13:52;;;;;;;1.98;0.70;;;;;;;8.90;90.89;98681.78;4996017;28;20084;-71
2023/01/15 05:16:20;;;;;;;0.98;0.70;;;;;;;8.91;91.55;98691.38;5027612;28;20520;-69
2023/01/15 05:18:46;;;;;;;4.90;1.17;;;;;;;8.80;91.61;98684.53;5013319;28;20110;-70
2023/01/15 05:21:17;;;;;;;2.53;0.30;;;;;;;8.61;91.53;98672.38;5011952;28;20176;-70
2023/01/15 05:23:43;;;;;;;3.15;1.13;;;;;;;8.67;91.37;98684.19;5031446;28;20103;-70
2023/01/15 05:26:08;;;;;;;4.15;0.73;;;;;;;8.76;91.54;98673.03;5010554;28;20038;-69
2023/01/15 05:28:34;;;;;;;3.28;0.52;;;;;;;8.93;90.60;98677.56;5011714;28;20030;-72
2023/01/15 05:31:05;;;;;;;1.00;0.52;;;;;;;8.78;90.73;98676.88;5012141;28;20122;-70
2023/01/15 05:33:31;;;;;;;2.60;0.55;;;;;;;8.86;90.90;98670.31;5008926;28;20033;-70
2023/01/15 05:36:01;;;;;;;0.80;0.35;;;;;;;8.90;90.51;98675.66;5009789;28;20044;-70
2023/01/15 05:38:26;;;;;;;4.38;0.50;;;;;;;8.86;89.52;98670.31;5028062;28;20121;-70
2023/01/15 05:40:52;;;;;;;3.90;1.38;;;;;;;8.82;90.24;98674.94;5008766;28;20116;-69
2023/01/15 05:43:17;;;;;;;2.10;0.43;;;;;;;8.63;91.28;98680.00;5009590;28;20108;-70
2023/01/15 05:45:43;;;;;;;4.05;1.15;;;;;;;8.83;90.50;98673.00;4993728;28;20050;-70
2023/01/15 05:48:08;;;;;;;0.40;0.40;;;;;;;8.65;91.04;98680.38;5009761;28;20044;-69
2023/01/15 05:50:33;;;;;;;5.35;0.43;;;;;;;8.87;90.09;98689.84;5011053;28;20120;-70
2023/01/15 05:52:59;;;;;;;0.95;0.38;;;;;;;8.72;89.95;98699.13;5010723;28;20604;-71
2023/01/15 05:55:24;;;;;;;0.60;0.60;;;;;;;8.77;89.91;98680.69;5010905;28;20030;-70
2023/01/15 05:57:50;;;;;;;4.22;0.88;;;;;;;8.80;89.37;98689.91;5007512;28;20038;-70
2023/01/15 06:00:16;;;;;;;3.50;0.88;;;;;;;8.83;89.50;98683.72;5010270;28;20038;-68
2023/01/15 06:02:41;;;;;;;0.20;0.20;;;;;;;8.65;89.90;98673.09;5006518;28;20080;-68
2023/01/15 06:05:07;;;;;;;2.63;0.55;;;;;;;8.60;90.15;98678.09;5009458;28;20038;-68
2023/01/15 06:07:32;;;;;;;2.40;0.88;;;;;;;8.69;90.41;98671.16;5007058;28;20051;-68
2023/01/15 06:09:58;;;;;;;2.97;1.25;;;;;;;8.53;90.18;98665.50;5010514;28;20088;-69
2023/01/15 06:12:23;;;;;;;4.50;0.50;;;;;;;8.55;90.25;98667.78;5004605;28;20056;-68
2023/01/15 06:14:49;;;;;;;1.98;0.47;;;;;;;8.65;90.24;98667.72;5011340;28;20084;-68
2023/01/15 06:17:14;;;;;;;2.90;0.82;;;;;;;8.59;90.29;98672.00;5025507;28;20029;-69
2023/01/15 06:19:40;;;;;;;1.05;0.50;;;;;;;8.79;89.30;98673.03;5011101;28;20073;-67
2023/01/15 06:22:05;;;;;;;1.15;0.65;;;;;;;8.68;89.73;98679.59;5034719;28;20479;-68
2023/01/15 06:24:30;;;;;;;3.80;0.70;;;;;;;8.56;90.29;98686.16;5018950;28;20479;-68
2023/01/15 06:26:56;;;;;;;2.40;0.75;;;;;;;8.55;90.50;98683.88;5008155;28;20034;-68
2023/01/15 06:29:21;;;;;;;5.60;0.38;;;;;;;8.54;91.05;98691.16;5026461;28;20674;-69
2023/01/15 06:31:48;;;;;;;1.30;0.57;;;;;;;8.56;91.02;98688.84;5009570;28;20045;-69
2023/01/15 06:34:13;;;;;;;0.55;0.52;;;;;;;8.66;90.70;98690.72;4989147;28;20018;-68
2023/01/15 06:36:39;;;;;;;6.07;1.48;;;;;;;8.76;90.04;98681.09;5010392;28;20056;-68
2023/01/15 06:39:04;;;;;;;2.72;0.80;;;;;;;8.74;90.44;98686.09;5006962;28;20123;-68
2023/01/15 06:47:21;;;;;;;2.30;0.77;;;;;;;8.66;90.73;98680.00;5007638;28;20034;-69
2023/01/15 06:49:48;;;;;;;1.10;0.70;;;;;;;8.66;90.87;98685.34;5003798;28;20040;-68
2023/01/15 06:52:14;;;;;;;0.70;0.43;;;;;;;8.59;91.63;98677.34;5026106;28;20033;-68
2023/01/15 06:54:39;;;;;;;2.45;0.70;;;;;;;8.49;91.63;98672.78;5008576;28;20064;-68
2023/01/15 06:57:25;;;;;;;3.05;1.15;;;;;;;8.59;91.05;98674.66;5011364;28;20026;-68
2023/01/15 06:59:50;;;;;;;4.40;0.80;;;;;;;8.51;91.63;98673.16;4931404;29;20114;-68
2023/01/15 07:02:16;;;;;;;1.23;0.75;;;;;;;8.47;91.56;98683.13;4938967;29;20504;-68
2023/01/15 07:04:42;;;;;;;7.03;1.02;;;;;;;8.47;91.63;98682.38;4936359;29;20219;-69
2023/01/15 07:07:07;;;;;;;5.05;0.63;;;;;;;8.38;91.68;98687.38;4920589;29;20186;-68
2023/01/15 07:09:33;;;;;;;2.60;0.50;;;;;;;8.40;91.87;98685.81;4914387;29;20043;-69
2023/01/15 07:11:58;;;;;;;0.73;0.50;;;;;;;8.59;91.65;98688.09;4911611;29;20046;-68
2023/01/15 07:14:26;;;;;;;4.35;0.95;;;;;;;8.55;91.11;98690.00;4912470;29;20028;-68
2023/01/15 07:16:52;;;;;;;4.15;0.70;;;;;;;8.35;91.60;98680.88;4915617;29;20556;-68
2023/01/15 07:19:18;;;;;;;1.63;0.98;;;;;;;8.39;91.70;98676.28;4931746;29;20115;-68
2023/01/15 07:21:44;;;;;;;1.38;0.60;;;;;;;8.38;92.12;98673.97;4921228;29;20035;-68
2023/01/15 07:24:10;;;;;;;1.00;0.70;;;;;;;8.44;92.27;98667.81;4931098;29;20492;-67
2023/01/15 07:26:37;;;;;;;3.22;1.05;;;;;;;8.29;91.94;98668.25;4936257;29;20050;-67
2023/01/15 07:29:03;;;;;;;1.75;0.80;;;;;;;8.33;91.67;98672.44;4939756;29;20032;-67
2023/01/15 07:31:28;;;;;;;1.05;0.98;;;;;;;8.29;91.89;98685.09;4929234;29;20044;-67
2023/01/15 07:33:57;;;;;;;0.80;0.47;;;;;;;8.37;92.32;98677.81;4921509;29;20032;-68
2023/01/15 07:36:23;;;;;;;4.15;0.45;;;;;;;8.28;92.00;98674.78;4960640;28;20549;-68
2023/01/15 07:38:49;;;;;;;1.92;1.13;;;;;;;8.37;91.53;98688.53;5010183;28;20525;-68
2023/01/15 07:49:45;;;;;;;2.60;0.90;;;;;;;8.51;90.70;98686.56;5019242;28;20509;-68
2023/01/15 07:52:15;;;;;;;2.50;0.80;;;;;;;8.42;90.66;98685.47;5009130;28;20038;-68
2023/01/15 07:54:40;;;;;;;4.30;1.48;;;;;;;8.41;90.80;98695.41;5010891;28;20041;-68
2023/01/15 07:57:06;;;;;;;2.63;0.82;;;;;;;8.43;91.38;98695.03;5009385;28;20398;-68
2023/01/15 07:59:32;;;;;;;2.38;0.60;;;;;;;8.44;90.54;98691.94;5008426;28;20040;-68
2023/01/15 08:01:57;;;;;;;2.45;0.88;;;;;;;8.53;90.45;98688.88;5000090;28;20034;-68
2023/01/15 08:04:23;;;;;;;0.60;0.60;;;;;;;8.55;89.86;98691.91;4999900;28;20036;-68
2023/01/15 08:06:48;;;;;;;4.13;0.95;;;;;;;8.42;90.14;98685.47;5010376;28;20157;-68
2023/01/15 08:09:14;;;;;;;2.05;1.00;;;;;;;8.40;90.86;98695.81;4992845;28;20398;-68
2023/01/15 08:17:08;;;;;;;2.33;0.80;;;;;;;8.59;89.38;98698.81;5010881;28;20044;-68
2023/01/15 08:19:33;;;;;;;3.97;0.98;;;;;;;8.68;88.58;98693.78;5022414;28;20030;-68
2023/01/15 08:22:00;;;;;;;3.25;1.10;;;;;;;8.63;88.27;98686.13;5020292;28;20584;-68
2023/01/15 08:24:27;;;;;;;4.95;0.90;;;;;;;8.45;88.33;98695.41;5023815;28;20041;-67
2023/01/15 08:26:53;;;;;;;6.13;1.20;;;;;;;8.34;88.95;98695.44;5017308;28;20405;-68
2023/01/15 08:29:20;;;;;;;1.20;0.88;;;;;;;8.52;88.75;98690.78;5011572;28;20040;-68
2023/01/15 08:31:46;;;;;;;5.63;0.90;;;;;;;8.52;88.13;98698.81;5013931;28;20050;-68
2023/01/15 08:34:12;;;;;;;4.38;1.00;;;;;;;8.49;88.17;98706.88;5010658;28;20030;-68
2023/01/15 08:36:38;;;;;;;6.13;0.93;;;;;;;8.61;88.10;98714.50;4991332;28;20034;-68
2023/01/15 08:39:03;;;;;;;3.10;0.93;;;;;;;8.69;86.56;98710.66;4992588;28;20695;-68
2023/01/15 08:41:30;;;;;;;0.93;0.82;;;;;;;8.71;86.74;98714.47;5010083;28;20120;-68
2023/01/15 08:43:55;;;;;;;1.50;0.73;;;;;;;8.81;86.72;98712.88;5009924;28;20022;-68
2023/01/15 08:46:21;;;;;;;3.22;1.00;;;;;;;8.71;86.52;98703.72;5006755;28;20164;-68
2023/01/15 08:48:47;;;;;;;1.85;0.80;;;;;;;8.78;86.60;98709.06;5010763;28;20511;-68
2023/01/15 08:51:13;;;;;;;2.92;0.98;;;;;;;8.66;86.29;98690.72;5009224;28;20382;-69
2023/01/15 08:53:38;;;;;;;4.22;0.90;;;;;;;8.46;85.75;98705.72;5010382;28;20028;-68
2023/01/15 08:56:12;;;;;;;1.90;1.02;;;;;;;8.44;85.58;98705.34;5009211;28;20038;-69
2023/01/15 08:58:37;;;;;;;3.67;1.13;;;;;;;8.60;85.95;98700.31;5008567;28;20091;-69
2023/01/15 09:01:05;;;;;;;3.95;2.05;;;;;;;8.50;85.09;98687.72;5007868;28;20021;-68
2023/01/15 09:03:31;;;;;;;3.78;1.10;;;;;;;8.52;85.08;98690.78;5009332;28;20060;-69
2023/01/15 09:06:01;;;;;;;0.45;0.45;;;;;;;8.57;85.01;98682.34;5009145;28;20038;-68
2023/01/15 09:08:27;;;;;;;3.75;0.90;;;;;;;8.68;84.70;98676.91;5007227;28;20112;-68
2023/01/15 09:11:00;;;;;;;1.10;0.52;;;;;;;8.70;84.43;98679.97;5002110;28;20034;-68
2023/01/15 09:13:27;;;;;;;6.78;0.82;;;;;;;8.62;84.74;98679.25;5010594;28;20493;-68
2023/01/15 09:15:53;;;;;;;5.15;0.95;;;;;;;8.54;83.87;98679.66;5007192;28;20038;-68
2023/01/15 09:18:19;;;;;;;1.85;0.63;;;;;;;8.66;83.51;98679.22;5002678;28;20490;-68
2023/01/15 09:20:48;;;;;;;1.70;0.63;;;;;;;8.54;83.84;98683.09;5012534;28;20092;-68
2023/01/15 09:23:14;;;;;;;2.35;0.80;;;;;;;8.38;84.17;98664.00;5014346;28;20061;-68
2023/01/15 09:25:41;;;;;;;0.90;0.70;;;;;;;8.40;84.51;98667.06;5030948;28;20551;-68
2023/01/15 09:28:07;;;;;;;2.28;0.75;;;;;;;8.53;83.92;98665.50;5010125;28;20068;-68
2023/01/15 09:30:34;;;;;;;4.10;1.30;;;;;;;8.70;83.42;98664.66;5015023;28;20046;-69
2023/01/15 09:33:00;;;;;;;6.10;0.75;;;;;;;8.69;82.64;98673.84;5026763;28;20079;-69
2023/01/15 09:35:25;;;;;;;2.70;0.60;;;;;;;8.64;81.63;98674.25;5028651;28;20029;-69
2023/01/15 09:37:52;;;;;;;2.22;1.00;;;;;;;8.41;82.71;98676.66;5033997;28;20453;-69
2023/01/15 09:40:43;;;;;;;1.40;0.57;;;;;;;8.42;81.82;98691.56;4995914;28;20028;-69
2023/01/15 09:43:15;;;;;;;;;;;;;;;8.51;80.74;98689.25;5013609;28;20529;-69
2023/01/15 09:45:50;;;;;;;2.67;0.93;;;;;;;8.40;80.60;98677.03;5016787;28;19921;-68
2023/01/15 09:48:24;;;;;;;1.55;0.52;;;;;;;8.28;80.50;98685.50;5008196;28;20122;-69
2023/01/15 09:51:28;;;;;;;1.63;0.57;;;;;;;8.40;78.66;98677.78;4999048;28;20049;-69
2023/01/15 09:54:04;;;;;;;1.85;0.60;;;;;;;8.48;77.35;98692.69;4990158;28;20046;-69
2023/01/15 09:56:32;;;;;;;0.90;0.65;;;;;;;8.38;76.76;98682.75;5014780;28;20030;-69
2023/01/15 09:59:02;;;;;;;0.52;0.50;;;;;;;8.86;75.73;98689.09;5018567;28;20541;-69
2023/01/15 10:01:32;;;;;;;0.43;0.43;;;;;;;8.73;74.65;98684.56;5007049;28;20041;-69
2023/01/15 10:04:03;;;;;;;0.22;0.22;;;;;;;8.88;74.10;98680.66;5016894;28;20041;-69
2023/01/15 10:06:37;;;;;;;1.50;0.60;;;;;;;8.77;74.52;98696.03;5004558;28;20042;-68
2023/01/15 10:09:13;;;;;;;2.78;0.77;;;;;;;8.92;73.74;98686.78;5016778;28;20042;-69
2023/01/15 10:14:38;;;;;;;0.85;0.82;;;;;;;9.17;72.45;98695.44;5016778;28;20398;-68
2023/01/15 10:17:16;;;;;;;1.60;0.85;;;;;;;9.12;73.01;98679.00;5010985;28;20030;-68
2023/01/15 10:19:42;;;;;;;0.50;0.43;;;;;;;9.08;73.12;98693.19;5010798;28;20389;-69
2023/01/15 10:22:30;;;;;;;0.43;0.43;;;;;;;9.23;72.99;98685.81;5011802;28;20117;-69
2023/01/15 10:24:57;;;;;;;1.20;0.50;;;;;;;9.43;71.98;98702.16;5001616;28;20046;-69
2023/01/15 10:27:25;;;;;;;0.63;0.63;;;;;;;9.14;73.08;98708.91;5012051;28;20502;-69
2023/01/15 10:30:26;;;;;;;3.45;0.90;;;;;;;9.40;72.86;98701.03;5007501;28;20038;-69
2023/01/15 10:32:55;;;;;;;4.00;0.60;;;;;;;9.30;71.50;98714.53;4991953;28;20064;-69
2023/01/15 10:35:33;;;;;;;0.50;0.50;;;;;;;9.12;72.67;98701.22;5010092;28;20482;-68
2023/01/15 10:38:28;;;;;;;0.77;0.60;;;;;;;9.23;71.21;98677.75;5019629;28;20125;-69
2023/01/15 10:41:16;;;;;;;5.68;0.93;;;;;;;9.29;70.06;98692.28;5009372;28;20045;-69
2023/01/15 10:43:57;;;;;;;0.57;0.47;;;;;;;9.13;70.28;98702.75;5009133;28;20037;-69
2023/01/15 10:46:28;;;;;;;3.90;0.40;;;;;;;9.30;70.25;98693.03;5008969;28;20046;-68
2023/01/15 10:49:00;;;;;;;4.00;0.98;;;;;;;9.11;68.94;98705.06;5007510;28;20107;-68
2023/01/15 10:51:34;;;;;;;0.73;0.45;;;;;;;9.25;69.46;98680.81;5012985;28;20041;-69
2023/01/15 10:54:09;;;;;;;1.35;0.57;;;;;;;9.30;68.43;98698.41;5011985;28;20037;-68
2023/01/15 10:56:39;;;;;;;2.60;0.68;;;;;;;9.50;69.18;98694.06;5016056;28;20057;-69
2023/01/15 10:59:07;;;;;;;1.77;0.90;;;;;;;9.29;69.31;98673.47;5036694;23;20018;-68
2023/01/15 11:01:33;;;;;;;0.93;0.75;;;;;;;8.84;67.34;98680.69;5024131;28;20033;-67
2023/01/15 11:03:58;;;;;;;1.55;0.85;;;;;;;9.06;68.05;98690.13;5024617;28;20520;-67
2023/01/15 11:06:27;;;;;;;1.70;0.30;;;;;;;8.85;67.12;98687.56;5015036;28;20037;-67
2023/01/15 11:08:56;;;;;;;1.75;0.77;;;;;;;8.65;67.91;98664.28;5011821;28;20163;-67
2023/01/15 11:19:42;;;;;;;0.30;0.30;;;;;;;9.13;67.30;98650.97;5022420;28;20122;-68
2023/01/15 11:22:14;;;;;;;2.00;0.88;;;;;;;9.20;66.87;98634.81;5042579;28;20040;-68
2023/01/15 11:24:50;;;;;;;0.30;0.30;;;;;;;9.35;67.36;98655.78;5044844;28;20505;-68
2023/01/15 11:27:19;;;;;;;1.65;0.50;;;;;;;9.17;66.52;98644.44;5012941;28;20041;-68
2023/01/15 11:29:51;;;;;;;3.53;0.90;;;;;;;9.20;67.28;98637.47;5043719;28;20125;-69
2023/01/15 11:32:28;;;;;;;2.40;0.70;;;;;;;9.14;66.96;98628.34;5023461;28;20163;-68
2023/01/15 11:34:56;;;;;;;1.95;0.57;;;;;;;9.08;66.36;98639.50;5016690;28;20132;-68
2023/01/15 11:37:22;;;;;;;2.60;0.43;;;;;;;9.13;66.33;98632.94;5040807;28;20080;-68
2023/01/15 11:40:18;;;;;;;0.95;0.50;;;;;;;9.01;67.78;98615.38;5035641;28;21307;-68
2023/01/15 11:51:16;;;;;;;0.80;0.57;;;;;;;9.31;66.91;98635.50;5036339;28;20032;-68
2023/01/15 11:53:54;;;;;;;6.90;0.98;;;;;;;9.42;66.79;98628.88;5022306;28;20032;-68
2023/01/15 11:56:24;;;;;;;0.77;0.63;;;;;;;9.29;69.23;98630.50;5040200;28;20079;-68
2023/01/15 11:58:54;;;;;;;4.05;0.57;;;;;;;9.00;74.36;98680.97;5024561;28;20029;-69
2023/01/15 12:01:36;;;;;;;1.10;0.40;;;;;;;8.84;78.53;98699.47;5017421;28;20029;-70
2023/01/15 12:04:21;;;;;;;0.50;0.40;;;;;;;8.13;85.62;98716.88;5038634;28;20676;-68
2023/01/15 12:06:47;;;;;;;0.50;0.50;;;;;;;8.11;85.97;98719.97;5019676;28;20041;-68
2023/01/15 12:09:29;;;;;;;0.40;0.40;;;;;;;7.97;87.68;98756.75;5040311;28;20070;-68
2023/01/15 12:12:26;;;;;;;1.75;0.63;;;;;;;7.30;89.18;98737.94;5039545;28;20040;-68
2023/01/15 12:15:13;;;;;;;0.32;0.28;;;;;;;6.74;90.67;98644.94;5022210;28;20047;-68
2023/01/15 12:17:44;;;;;;;0.30;0.30;;;;;;;6.93;91.07;98644.59;5031197;28;20029;-68
2023/01/15 12:20:37;;;;;;;1.48;0.50;;;;;;;7.08;92.38;98654.16;5036212;28;20060;-69
2023/01/15 12:23:27;;;;;;;1.48;0.47;;;;;;;7.16;91.12;98661.06;5043236;28;20037;-68
2023/01/15 12:26:26;;;;;;;0.63;0.30;;;;;;;7.21;90.87;98655.34;5030375;28;20178;-68
2023/01/15 12:29:01;;;;;;;0.30;0.30;;;;;;;7.40;90.31;98638.13;5025090;28;20040;-68
2023/01/15 12:31:49;;;;;;;2.15;0.47;;;;;;;7.17;90.44;98648.44;5043619;28;20445;-68
2023/01/15 12:34:18;;;;;;;0.43;0.28;;;;;;;7.17;90.37;98648.44;5040197;28;20029;-68
2023/01/15 12:36:48;;;;;;;0.38;0.38;;;;;;;7.40;90.44;98637.38;5040648;28;20040;-68
2023/01/15 12:39:24;;;;;;;0.22;0.22;;;;;;;7.26;90.87;98628.19;5047084;28;20037;-69
2023/01/15 12:45:04;;;;;;;0.73;0.47;;;;;;;7.64;89.54;98625.88;5004696;28;20049;-68
2023/01/15 12:47:39;;;;;;;0.98;0.80;;;;;;;7.40;92.96;98611.34;5053782;28;20041;-68